Hauptseite
METAR-TAF:

METAR-TAF

Flughäfen :

Flughafen Comiso

Comiso, Italien

Breite: 36-59-30N, Länge: 14-36-25E, Höhe: 190 m

Beobachtung

Neuester Wetterbericht von vor 8 Stunden und 9 Minuten, um 21:50 UTC
Wind 4 kt aus unterschiedlichen Richtungen
Temperatur 10°C
Luftfeuchtigkeit 93%
Luftdruck 1011 hPa
Sichtweite 10 km oder mehr
keine Wolken unter 1500 m und keine Kumulonimbus oder Gewitterwolken

METAR: LICB 182150Z VRB04KT CAVOK 10/09 Q1011

Zeit: 06:59 (05:59 UTC)

Prognose

Neuester Wetterbericht von vor 59 Minuten, um 05:00 UTC
Gültige Prognose vom 19 um 06 UTC bis 19 um 15 UTC
Wind 6 kt aus unterschiedlichen Richtungen
Sichtweite 10 km oder mehr
Aufgelockert bewölkt in der Höhe von 3000 ft
Übergehend zu
vom 19 um 08 UTC bis 19 um 10 UTC
Wind 12 kt aus Südwest

TAF: LICB 190500Z 1906/1915 VRB06KT 9999 SCT030 BECMG 1908/1910 22012KT

Wetterbeobachtungen und Prognosen von mehr als 4000 Flughäfen (METAR und TAF Bericht).

Die verfügbaren Stationen werden durch gelbe und rote Markierungen auf der Karte dargestellt.

Führen Sie die Maus auf sie, um den Namen der Station zu sehen.

Darauf klicken, um die Beobachtung von Wetterbeobachtungen und Prognosen zu sehen.

Um die Karte zu ändern : klicken Sie auf den grünen Tasten mit einem schwarzen Kreuz Zum Vergrößern, auf den grünen Button mit einem Gedankenstrich zu verkleinern, oder auf die grünen Pfeile für benachbarte Karten.


METAR-TAF: